sensor_id;sensor_type;location;lat;lon;timestamp;P1;durP1;ratioP1;P2;durP2;ratioP2
69750;SDS011;57335;52.288;6.056;2024-03-02T00:00:27;4.38;;;1.20;;
69750;SDS011;57335;52.288;6.056;2024-03-02T00:02:53;3.50;;;1.30;;
69750;SDS011;57335;52.288;6.056;2024-03-02T00:05:21;3.65;;;1.27;;
69750;SDS011;57335;52.288;6.056;2024-03-02T00:07:55;2.42;;;1.17;;
69750;SDS011;57335;52.288;6.056;2024-03-02T00:10:27;2.65;;;1.00;;
69750;SDS011;57335;52.288;6.056;2024-03-02T00:13:03;3.72;;;1.25;;
69750;SDS011;57335;52.288;6.056;2024-03-02T00:17:56;2.88;;;1.08;;
69750;SDS011;57335;52.288;6.056;2024-03-02T00:20:25;4.07;;;1.30;;
69750;SDS011;57335;52.288;6.056;2024-03-02T00:23:04;2.17;;;1.00;;
69750;SDS011;57335;52.288;6.056;2024-03-02T00:25:36;3.28;;;1.13;;
69750;SDS011;57335;52.288;6.056;2024-03-02T00:28:05;2.25;;;1.10;;
69750;SDS011;57335;52.288;6.056;2024-03-02T00:30:41;4.07;;;1.30;;
69750;SDS011;57335;52.288;6.056;2024-03-02T00:33:10;2.53;;;1.02;;
69750;SDS011;57335;52.288;6.056;2024-03-02T00:35:36;3.22;;;1.40;;
69750;SDS011;57335;52.288;6.056;2024-03-02T00:38:04;2.85;;;1.13;;
69750;SDS011;57335;52.288;6.056;2024-03-02T00:40:32;3.50;;;0.98;;
69750;SDS011;57335;52.288;6.056;2024-03-02T00:42:58;6.68;;;1.30;;
69750;SDS011;57335;52.288;6.056;2024-03-02T00:45:25;5.03;;;1.45;;
69750;SDS011;57335;52.288;6.056;2024-03-02T00:47:52;3.75;;;1.10;;
69750;SDS011;57335;52.288;6.056;2024-03-02T00:50:19;3.05;;;1.13;;
69750;SDS011;57335;52.288;6.056;2024-03-02T00:52:56;3.83;;;1.23;;
69750;SDS011;57335;52.288;6.056;2024-03-02T00:55:22;5.10;;;1.73;;
69750;SDS011;57335;52.288;6.056;2024-03-02T00:57:49;4.28;;;1.30;;
69750;SDS011;57335;52.288;6.056;2024-03-02T01:00:15;4.05;;;1.40;;
69750;SDS011;57335;52.288;6.056;2024-03-02T01:02:44;2.80;;;1.02;;
69750;SDS011;57335;52.288;6.056;2024-03-02T01:05:12;3.17;;;1.20;;
69750;SDS011;57335;52.288;6.056;2024-03-02T01:07:39;2.83;;;1.05;;
69750;SDS011;57335;52.288;6.056;2024-03-02T01:10:05;5.10;;;1.30;;
69750;SDS011;57335;52.288;6.056;2024-03-02T01:12:32;2.67;;;1.00;;
69750;SDS011;57335;52.288;6.056;2024-03-02T01:14:58;3.08;;;1.27;;
69750;SDS011;57335;52.288;6.056;2024-03-02T01:17:25;5.05;;;1.30;;
69750;SDS011;57335;52.288;6.056;2024-03-02T01:19:52;3.20;;;1.10;;
69750;SDS011;57335;52.288;6.056;2024-03-02T01:22:18;2.53;;;1.05;;
69750;SDS011;57335;52.288;6.056;2024-03-02T01:24:51;5.72;;;1.50;;
69750;SDS011;57335;52.288;6.056;2024-03-02T01:27:18;2.72;;;0.98;;
69750;SDS011;57335;52.288;6.056;2024-03-02T01:29:45;3.60;;;1.20;;
69750;SDS011;57335;52.288;6.056;2024-03-02T01:32:11;3.92;;;1.33;;
69750;SDS011;57335;52.288;6.056;2024-03-02T01:34:38;5.03;;;1.50;;
69750;SDS011;57335;52.288;6.056;2024-03-02T01:37:04;9.27;;;1.33;;
69750;SDS011;57335;52.288;6.056;2024-03-02T01:39:31;2.78;;;1.10;;
69750;SDS011;57335;52.288;6.056;2024-03-02T01:41:57;2.30;;;1.10;;
69750;SDS011;57335;52.288;6.056;2024-03-02T01:44:24;3.80;;;1.30;;
69750;SDS011;57335;52.288;6.056;2024-03-02T01:46:50;3.35;;;1.30;;
69750;SDS011;57335;52.288;6.056;2024-03-02T01:49:17;4.15;;;1.30;;
69750;SDS011;57335;52.288;6.056;2024-03-02T01:51:45;2.42;;;1.10;;
69750;SDS011;57335;52.288;6.056;2024-03-02T01:54:11;4.70;;;1.17;;
69750;SDS011;57335;52.288;6.056;2024-03-02T01:56:38;2.25;;;1.08;;
69750;SDS011;57335;52.288;6.056;2024-03-02T01:59:04;3.35;;;1.13;;
69750;SDS011;57335;52.288;6.056;2024-03-02T02:01:31;2.05;;;0.85;;
69750;SDS011;57335;52.288;6.056;2024-03-02T02:03:58;3.38;;;1.13;;
69750;SDS011;57335;52.288;6.056;2024-03-02T02:06:25;1.90;;;1.00;;
69750;SDS011;57335;52.288;6.056;2024-03-02T02:08:52;5.65;;;1.27;;
69750;SDS011;57335;52.288;6.056;2024-03-02T02:11:18;3.85;;;1.58;;
69750;SDS011;57335;52.288;6.056;2024-03-02T02:13:45;4.70;;;1.50;;
69750;SDS011;57335;52.288;6.056;2024-03-02T02:16:12;5.75;;;1.63;;
69750;SDS011;57335;52.288;6.056;2024-03-02T02:18:38;4.72;;;1.73;;
69750;SDS011;57335;52.288;6.056;2024-03-02T02:21:05;8.02;;;1.13;;
69750;SDS011;57335;52.288;6.056;2024-03-02T02:23:31;5.55;;;1.40;;
69750;SDS011;57335;52.288;6.056;2024-03-02T02:25:58;3.97;;;1.38;;
69750;SDS011;57335;52.288;6.056;2024-03-02T02:28:24;5.00;;;1.30;;
69750;SDS011;57335;52.288;6.056;2024-03-02T02:30:51;1.50;;;1.00;;
69750;SDS011;57335;52.288;6.056;2024-03-02T02:33:17;3.03;;;1.20;;
69750;SDS011;57335;52.288;6.056;2024-03-02T02:35:44;3.20;;;1.30;;
69750;SDS011;57335;52.288;6.056;2024-03-02T02:38:10;2.95;;;1.23;;
69750;SDS011;57335;52.288;6.056;2024-03-02T02:40:37;3.70;;;1.52;;
69750;SDS011;57335;52.288;6.056;2024-03-02T02:43:03;2.83;;;1.35;;
69750;SDS011;57335;52.288;6.056;2024-03-02T02:45:30;2.13;;;1.00;;
69750;SDS011;57335;52.288;6.056;2024-03-02T02:47:57;2.30;;;0.88;;
69750;SDS011;57335;52.288;6.056;2024-03-02T02:50:23;3.20;;;1.00;;
69750;SDS011;57335;52.288;6.056;2024-03-02T02:52:50;2.88;;;1.20;;
69750;SDS011;57335;52.288;6.056;2024-03-02T02:55:16;3.17;;;1.00;;
69750;SDS011;57335;52.288;6.056;2024-03-02T02:57:43;4.18;;;1.05;;
69750;SDS011;57335;52.288;6.056;2024-03-02T03:00:14;4.28;;;1.10;;
69750;SDS011;57335;52.288;6.056;2024-03-02T03:02:44;2.28;;;0.90;;
69750;SDS011;57335;52.288;6.056;2024-03-02T03:05:12;2.50;;;1.00;;
69750;SDS011;57335;52.288;6.056;2024-03-02T03:07:40;2.03;;;0.82;;
69750;SDS011;57335;52.288;6.056;2024-03-02T03:10:07;2.25;;;0.85;;
69750;SDS011;57335;52.288;6.056;2024-03-02T03:12:35;2.47;;;0.85;;
69750;SDS011;57335;52.288;6.056;2024-03-02T03:15:02;2.97;;;0.93;;
69750;SDS011;57335;52.288;6.056;2024-03-02T03:17:31;1.90;;;0.80;;
69750;SDS011;57335;52.288;6.056;2024-03-02T03:19:58;3.08;;;0.80;;
69750;SDS011;57335;52.288;6.056;2024-03-02T03:22:24;3.83;;;1.23;;
69750;SDS011;57335;52.288;6.056;2024-03-02T03:24:51;2.83;;;1.00;;
69750;SDS011;57335;52.288;6.056;2024-03-02T03:27:18;3.05;;;0.90;;
69750;SDS011;57335;52.288;6.056;2024-03-02T03:29:46;2.22;;;1.02;;
69750;SDS011;57335;52.288;6.056;2024-03-02T03:32:12;3.75;;;1.00;;
69750;SDS011;57335;52.288;6.056;2024-03-02T03:34:39;2.50;;;0.90;;
69750;SDS011;57335;52.288;6.056;2024-03-02T03:37:06;2.58;;;1.00;;
69750;SDS011;57335;52.288;6.056;2024-03-02T03:39:33;1.73;;;0.68;;
69750;SDS011;57335;52.288;6.056;2024-03-02T03:42:00;3.28;;;0.80;;
69750;SDS011;57335;52.288;6.056;2024-03-02T03:44:27;0.65;;;0.57;;
69750;SDS011;57335;52.288;6.056;2024-03-02T03:46:53;3.22;;;0.70;;
69750;SDS011;57335;52.288;6.056;2024-03-02T03:49:20;1.17;;;0.52;;
69750;SDS011;57335;52.288;6.056;2024-03-02T03:51:46;1.33;;;0.50;;
69750;SDS011;57335;52.288;6.056;2024-03-02T03:54:13;0.70;;;0.60;;
69750;SDS011;57335;52.288;6.056;2024-03-02T03:56:40;1.77;;;0.60;;
69750;SDS011;57335;52.288;6.056;2024-03-02T03:59:06;3.03;;;0.60;;
69750;SDS011;57335;52.288;6.056;2024-03-02T04:01:33;1.38;;;0.40;;
69750;SDS011;57335;52.288;6.056;2024-03-02T04:04:00;1.58;;;0.40;;
69750;SDS011;57335;52.288;6.056;2024-03-02T04:06:28;1.20;;;0.65;;
69750;SDS011;57335;52.288;6.056;2024-03-02T04:08:54;0.85;;;0.43;;
69750;SDS011;57335;52.288;6.056;2024-03-02T04:11:21;1.42;;;0.40;;
69750;SDS011;57335;52.288;6.056;2024-03-02T04:13:48;1.05;;;0.52;;
69750;SDS011;57335;52.288;6.056;2024-03-02T04:16:14;0.75;;;0.40;;
69750;SDS011;57335;52.288;6.056;2024-03-02T04:18:41;0.55;;;0.40;;
69750;SDS011;57335;52.288;6.056;2024-03-02T04:21:08;1.30;;;0.45;;
69750;SDS011;57335;52.288;6.056;2024-03-02T04:23:34;0.70;;;0.28;;
69750;SDS011;57335;52.288;6.056;2024-03-02T04:26:01;0.75;;;0.50;;
69750;SDS011;57335;52.288;6.056;2024-03-02T04:28:28;0.47;;;0.20;;
69750;SDS011;57335;52.288;6.056;2024-03-02T04:30:54;1.70;;;0.43;;
69750;SDS011;57335;52.288;6.056;2024-03-02T04:33:21;0.45;;;0.22;;
69750;SDS011;57335;52.288;6.056;2024-03-02T04:35:47;2.20;;;0.45;;
69750;SDS011;57335;52.288;6.056;2024-03-02T04:38:14;0.70;;;0.40;;
69750;SDS011;57335;52.288;6.056;2024-03-02T04:40:40;0.40;;;0.40;;
69750;SDS011;57335;52.288;6.056;2024-03-02T04:43:07;0.85;;;0.43;;
69750;SDS011;57335;52.288;6.056;2024-03-02T04:45:37;0.75;;;0.50;;
69750;SDS011;57335;52.288;6.056;2024-03-02T04:48:04;0.40;;;0.20;;
69750;SDS011;57335;52.288;6.056;2024-03-02T04:50:31;0.50;;;0.22;;
69750;SDS011;57335;52.288;6.056;2024-03-02T04:52:57;0.98;;;0.50;;
69750;SDS011;57335;52.288;6.056;2024-03-02T04:55:24;1.42;;;0.70;;
69750;SDS011;57335;52.288;6.056;2024-03-02T04:57:53;0.43;;;0.43;;
69750;SDS011;57335;52.288;6.056;2024-03-02T05:00:23;0.80;;;0.50;;
69750;SDS011;57335;52.288;6.056;2024-03-02T05:02:50;0.85;;;0.50;;
69750;SDS011;57335;52.288;6.056;2024-03-02T05:05:17;0.20;;;0.20;;
69750;SDS011;57335;52.288;6.056;2024-03-02T05:07:44;0.82;;;0.50;;
69750;SDS011;57335;52.288;6.056;2024-03-02T05:10:10;2.38;;;0.50;;
69750;SDS011;57335;52.288;6.056;2024-03-02T05:12:41;0.65;;;0.40;;
69750;SDS011;57335;52.288;6.056;2024-03-02T05:15:11;0.52;;;0.40;;
69750;SDS011;57335;52.288;6.056;2024-03-02T05:17:40;2.13;;;0.63;;
69750;SDS011;57335;52.288;6.056;2024-03-02T05:20:09;2.58;;;0.50;;
69750;SDS011;57335;52.288;6.056;2024-03-02T05:22:37;2.38;;;0.45;;
69750;SDS011;57335;52.288;6.056;2024-03-02T05:25:04;2.22;;;0.60;;
69750;SDS011;57335;52.288;6.056;2024-03-02T05:27:31;1.05;;;0.47;;
69750;SDS011;57335;52.288;6.056;2024-03-02T05:29:59;1.55;;;0.50;;
69750;SDS011;57335;52.288;6.056;2024-03-02T05:32:26;1.02;;;0.60;;
69750;SDS011;57335;52.288;6.056;2024-03-02T05:34:53;0.90;;;0.43;;
69750;SDS011;57335;52.288;6.056;2024-03-02T05:37:20;2.28;;;0.65;;
69750;SDS011;57335;52.288;6.056;2024-03-02T05:39:46;0.82;;;0.45;;
69750;SDS011;57335;52.288;6.056;2024-03-02T05:42:13;1.67;;;0.60;;
69750;SDS011;57335;52.288;6.056;2024-03-02T05:44:39;7.70;;;0.80;;
69750;SDS011;57335;52.288;6.056;2024-03-02T05:47:06;1.42;;;0.52;;
69750;SDS011;57335;52.288;6.056;2024-03-02T05:49:35;0.88;;;0.60;;
69750;SDS011;57335;52.288;6.056;2024-03-02T05:52:02;3.08;;;0.70;;
69750;SDS011;57335;52.288;6.056;2024-03-02T05:54:29;3.50;;;0.80;;
69750;SDS011;57335;52.288;6.056;2024-03-02T05:56:56;2.88;;;0.70;;
69750;SDS011;57335;52.288;6.056;2024-03-02T05:59:22;0.98;;;0.60;;
69750;SDS011;57335;52.288;6.056;2024-03-02T06:01:49;1.00;;;0.70;;
69750;SDS011;57335;52.288;6.056;2024-03-02T06:04:18;1.35;;;0.73;;
69750;SDS011;57335;52.288;6.056;2024-03-02T06:06:44;1.35;;;0.70;;
69750;SDS011;57335;52.288;6.056;2024-03-02T06:09:11;2.08;;;0.60;;
69750;SDS011;57335;52.288;6.056;2024-03-02T06:11:40;2.72;;;0.60;;
69750;SDS011;57335;52.288;6.056;2024-03-02T06:14:07;0.70;;;0.70;;
69750;SDS011;57335;52.288;6.056;2024-03-02T06:16:35;1.52;;;0.70;;
69750;SDS011;57335;52.288;6.056;2024-03-02T06:19:01;2.17;;;0.82;;
69750;SDS011;57335;52.288;6.056;2024-03-02T06:21:29;0.73;;;0.63;;
69750;SDS011;57335;52.288;6.056;2024-03-02T06:23:56;2.05;;;0.60;;
69750;SDS011;57335;52.288;6.056;2024-03-02T06:26:23;2.88;;;0.75;;
69750;SDS011;57335;52.288;6.056;2024-03-02T06:28:51;2.15;;;0.68;;
69750;SDS011;57335;52.288;6.056;2024-03-02T06:31:18;2.97;;;1.00;;
69750;SDS011;57335;52.288;6.056;2024-03-02T06:33:44;2.35;;;0.77;;
69750;SDS011;57335;52.288;6.056;2024-03-02T06:36:11;1.75;;;0.80;;
69750;SDS011;57335;52.288;6.056;2024-03-02T06:38:38;2.03;;;0.70;;
69750;SDS011;57335;52.288;6.056;2024-03-02T06:41:09;2.80;;;0.65;;
69750;SDS011;57335;52.288;6.056;2024-03-02T06:43:35;1.60;;;0.70;;
69750;SDS011;57335;52.288;6.056;2024-03-02T06:46:02;2.35;;;0.75;;
69750;SDS011;57335;52.288;6.056;2024-03-02T06:48:29;3.53;;;0.80;;
69750;SDS011;57335;52.288;6.056;2024-03-02T06:50:56;1.42;;;0.60;;
69750;SDS011;57335;52.288;6.056;2024-03-02T06:53:24;2.25;;;0.70;;
69750;SDS011;57335;52.288;6.056;2024-03-02T06:55:51;1.80;;;0.70;;
69750;SDS011;57335;52.288;6.056;2024-03-02T06:58:18;1.58;;;0.90;;
69750;SDS011;57335;52.288;6.056;2024-03-02T07:00:44;1.65;;;0.80;;
69750;SDS011;57335;52.288;6.056;2024-03-02T07:03:11;1.92;;;0.85;;
69750;SDS011;57335;52.288;6.056;2024-03-02T07:05:38;1.38;;;0.80;;
69750;SDS011;57335;52.288;6.056;2024-03-02T07:08:05;2.50;;;0.80;;
69750;SDS011;57335;52.288;6.056;2024-03-02T07:10:32;1.55;;;0.70;;
69750;SDS011;57335;52.288;6.056;2024-03-02T07:12:58;1.85;;;0.90;;
69750;SDS011;57335;52.288;6.056;2024-03-02T07:15:25;4.18;;;1.00;;
69750;SDS011;57335;52.288;6.056;2024-03-02T07:18:30;5.55;;;0.90;;
69750;SDS011;57335;52.288;6.056;2024-03-02T07:20:57;1.98;;;0.77;;
69750;SDS011;57335;52.288;6.056;2024-03-02T07:23:25;3.88;;;0.93;;
69750;SDS011;57335;52.288;6.056;2024-03-02T07:25:53;2.45;;;0.80;;
69750;SDS011;57335;52.288;6.056;2024-03-02T07:31:02;1.45;;;0.73;;
69750;SDS011;57335;52.288;6.056;2024-03-02T07:35:58;1.95;;;0.80;;
69750;SDS011;57335;52.288;6.056;2024-03-02T07:38:30;3.33;;;0.80;;
69750;SDS011;57335;52.288;6.056;2024-03-02T07:40:58;3.15;;;0.80;;
69750;SDS011;57335;52.288;6.056;2024-03-02T07:43:25;1.63;;;0.80;;
69750;SDS011;57335;52.288;6.056;2024-03-02T07:45:52;2.65;;;0.75;;
69750;SDS011;57335;52.288;6.056;2024-03-02T07:48:19;3.88;;;0.90;;
69750;SDS011;57335;52.288;6.056;2024-03-02T07:50:45;1.52;;;0.77;;
69750;SDS011;57335;52.288;6.056;2024-03-02T07:53:12;1.48;;;0.65;;
69750;SDS011;57335;52.288;6.056;2024-03-02T07:55:38;1.23;;;0.52;;
69750;SDS011;57335;52.288;6.056;2024-03-02T07:58:05;3.47;;;0.98;;
69750;SDS011;57335;52.288;6.056;2024-03-02T08:00:32;2.88;;;0.80;;
69750;SDS011;57335;52.288;6.056;2024-03-02T08:02:59;0.80;;;0.55;;
69750;SDS011;57335;52.288;6.056;2024-03-02T08:05:26;3.72;;;0.85;;
69750;SDS011;57335;52.288;6.056;2024-03-02T08:07:53;2.42;;;0.80;;
69750;SDS011;57335;52.288;6.056;2024-03-02T08:10:20;1.30;;;0.65;;
69750;SDS011;57335;52.288;6.056;2024-03-02T08:12:46;1.75;;;0.80;;
69750;SDS011;57335;52.288;6.056;2024-03-02T08:15:13;2.03;;;0.85;;
69750;SDS011;57335;52.288;6.056;2024-03-02T08:17:40;2.35;;;0.77;;
69750;SDS011;57335;52.288;6.056;2024-03-02T08:20:17;3.03;;;0.77;;
69750;SDS011;57335;52.288;6.056;2024-03-02T08:22:46;1.15;;;0.70;;
69750;SDS011;57335;52.288;6.056;2024-03-02T08:25:22;0.98;;;0.60;;
69750;SDS011;57335;52.288;6.056;2024-03-02T08:27:49;2.65;;;1.00;;
69750;SDS011;57335;52.288;6.056;2024-03-02T08:30:15;2.53;;;0.90;;
69750;SDS011;57335;52.288;6.056;2024-03-02T08:32:42;0.95;;;0.60;;
69750;SDS011;57335;52.288;6.056;2024-03-02T08:35:09;2.53;;;0.70;;
69750;SDS011;57335;52.288;6.056;2024-03-02T08:37:36;2.38;;;0.80;;
69750;SDS011;57335;52.288;6.056;2024-03-02T08:40:06;2.45;;;0.60;;
69750;SDS011;57335;52.288;6.056;2024-03-02T08:42:33;4.25;;;0.70;;
69750;SDS011;57335;52.288;6.056;2024-03-02T08:45:00;2.28;;;0.68;;
69750;SDS011;57335;52.288;6.056;2024-03-02T08:47:27;2.65;;;0.88;;
69750;SDS011;57335;52.288;6.056;2024-03-02T08:49:54;2.83;;;0.60;;
69750;SDS011;57335;52.288;6.056;2024-03-02T08:52:20;2.53;;;0.60;;
69750;SDS011;57335;52.288;6.056;2024-03-02T08:54:47;2.95;;;0.90;;
69750;SDS011;57335;52.288;6.056;2024-03-02T08:57:13;2.83;;;1.00;;
69750;SDS011;57335;52.288;6.056;2024-03-02T08:59:40;1.98;;;0.60;;
69750;SDS011;57335;52.288;6.056;2024-03-02T09:02:06;3.00;;;0.70;;
69750;SDS011;57335;52.288;6.056;2024-03-02T09:04:33;1.67;;;0.65;;
69750;SDS011;57335;52.288;6.056;2024-03-02T09:07:00;2.47;;;0.70;;
69750;SDS011;57335;52.288;6.056;2024-03-02T09:09:27;1.00;;;0.55;;
69750;SDS011;57335;52.288;6.056;2024-03-02T09:11:54;0.98;;;0.57;;
69750;SDS011;57335;52.288;6.056;2024-03-02T09:14:21;2.40;;;0.70;;
69750;SDS011;57335;52.288;6.056;2024-03-02T09:16:48;2.72;;;0.63;;
69750;SDS011;57335;52.288;6.056;2024-03-02T09:19:14;2.67;;;0.68;;
69750;SDS011;57335;52.288;6.056;2024-03-02T09:21:41;2.92;;;0.80;;
69750;SDS011;57335;52.288;6.056;2024-03-02T09:24:08;2.20;;;0.52;;
69750;SDS011;57335;52.288;6.056;2024-03-02T09:26:36;2.28;;;0.70;;
69750;SDS011;57335;52.288;6.056;2024-03-02T09:29:03;2.70;;;0.63;;
69750;SDS011;57335;52.288;6.056;2024-03-02T09:31:29;1.85;;;0.60;;
69750;SDS011;57335;52.288;6.056;2024-03-02T09:33:56;3.63;;;0.80;;
69750;SDS011;57335;52.288;6.056;2024-03-02T09:36:22;2.70;;;0.63;;
69750;SDS011;57335;52.288;6.056;2024-03-02T09:38:49;5.70;;;0.80;;
69750;SDS011;57335;52.288;6.056;2024-03-02T09:41:16;2.30;;;0.57;;
69750;SDS011;57335;52.288;6.056;2024-03-02T09:43:42;1.38;;;0.60;;
69750;SDS011;57335;52.288;6.056;2024-03-02T09:46:10;2.63;;;0.70;;
69750;SDS011;57335;52.288;6.056;2024-03-02T09:48:37;2.08;;;0.63;;
69750;SDS011;57335;52.288;6.056;2024-03-02T09:51:04;3.13;;;0.65;;
69750;SDS011;57335;52.288;6.056;2024-03-02T09:53:31;2.80;;;0.73;;
69750;SDS011;57335;52.288;6.056;2024-03-02T09:55:59;2.85;;;0.60;;
69750;SDS011;57335;52.288;6.056;2024-03-02T09:58:26;4.32;;;0.70;;
69750;SDS011;57335;52.288;6.056;2024-03-02T10:00:52;2.22;;;0.80;;
69750;SDS011;57335;52.288;6.056;2024-03-02T10:03:19;1.38;;;0.50;;
69750;SDS011;57335;52.288;6.056;2024-03-02T10:05:47;2.25;;;0.77;;
69750;SDS011;57335;52.288;6.056;2024-03-02T10:08:13;3.05;;;0.70;;
69750;SDS011;57335;52.288;6.056;2024-03-02T10:10:40;3.25;;;0.70;;
69750;SDS011;57335;52.288;6.056;2024-03-02T10:13:10;5.32;;;0.68;;
69750;SDS011;57335;52.288;6.056;2024-03-02T10:15:38;1.30;;;0.63;;
69750;SDS011;57335;52.288;6.056;2024-03-02T10:18:12;1.98;;;0.60;;
69750;SDS011;57335;52.288;6.056;2024-03-02T10:20:40;2.80;;;0.75;;
69750;SDS011;57335;52.288;6.056;2024-03-02T10:23:10;3.35;;;0.60;;
69750;SDS011;57335;52.288;6.056;2024-03-02T10:25:38;3.47;;;0.70;;
69750;SDS011;57335;52.288;6.056;2024-03-02T10:28:19;0.70;;;0.50;;
69750;SDS011;57335;52.288;6.056;2024-03-02T10:30:47;4.07;;;0.75;;
69750;SDS011;57335;52.288;6.056;2024-03-02T10:33:17;6.13;;;0.70;;
69750;SDS011;57335;52.288;6.056;2024-03-02T10:35:43;2.47;;;0.60;;
69750;SDS011;57335;52.288;6.056;2024-03-02T10:38:10;2.00;;;0.60;;
69750;SDS011;57335;52.288;6.056;2024-03-02T10:40:37;1.13;;;0.52;;
69750;SDS011;57335;52.288;6.056;2024-03-02T10:43:04;5.35;;;0.73;;
69750;SDS011;57335;52.288;6.056;2024-03-02T10:45:32;1.83;;;0.50;;
69750;SDS011;57335;52.288;6.056;2024-03-02T10:48:00;1.45;;;0.60;;
69750;SDS011;57335;52.288;6.056;2024-03-02T10:50:28;3.45;;;0.60;;
69750;SDS011;57335;52.288;6.056;2024-03-02T10:52:56;2.08;;;0.60;;
69750;SDS011;57335;52.288;6.056;2024-03-02T10:55:22;2.53;;;0.60;;
69750;SDS011;57335;52.288;6.056;2024-03-02T11:00:17;2.75;;;0.60;;
69750;SDS011;57335;52.288;6.056;2024-03-02T11:02:51;4.75;;;0.52;;
69750;SDS011;57335;52.288;6.056;2024-03-02T11:05:28;3.28;;;0.73;;
69750;SDS011;57335;52.288;6.056;2024-03-02T11:08:08;3.17;;;0.70;;
69750;SDS011;57335;52.288;6.056;2024-03-02T11:10:45;3.67;;;0.70;;
69750;SDS011;57335;52.288;6.056;2024-03-02T11:13:13;1.42;;;0.65;;
69750;SDS011;57335;52.288;6.056;2024-03-02T11:15:40;1.65;;;0.50;;
69750;SDS011;57335;52.288;6.056;2024-03-02T11:18:10;3.45;;;0.60;;
69750;SDS011;57335;52.288;6.056;2024-03-02T11:20:39;3.25;;;0.68;;
69750;SDS011;57335;52.288;6.056;2024-03-02T11:23:07;2.30;;;0.50;;
69750;SDS011;57335;52.288;6.056;2024-03-02T11:25:35;1.02;;;0.50;;
69750;SDS011;57335;52.288;6.056;2024-03-02T11:28:06;3.25;;;0.63;;
69750;SDS011;57335;52.288;6.056;2024-03-02T11:33:04;2.05;;;0.60;;
69750;SDS011;57335;52.288;6.056;2024-03-02T11:35:41;3.83;;;0.60;;
69750;SDS011;57335;52.288;6.056;2024-03-02T11:38:15;5.00;;;0.60;;
69750;SDS011;57335;52.288;6.056;2024-03-02T11:40:42;2.35;;;0.65;;
69750;SDS011;57335;52.288;6.056;2024-03-02T11:43:08;1.52;;;0.40;;
69750;SDS011;57335;52.288;6.056;2024-03-02T11:45:36;3.13;;;0.80;;
69750;SDS011;57335;52.288;6.056;2024-03-02T11:48:06;1.17;;;0.50;;
69750;SDS011;57335;52.288;6.056;2024-03-02T11:50:42;1.40;;;0.55;;
69750;SDS011;57335;52.288;6.056;2024-03-02T11:53:13;5.35;;;0.90;;
69750;SDS011;57335;52.288;6.056;2024-03-02T11:55:40;3.33;;;0.63;;
69750;SDS011;57335;52.288;6.056;2024-03-02T11:58:07;1.40;;;0.70;;
69750;SDS011;57335;52.288;6.056;2024-03-02T12:00:34;2.20;;;0.60;;
69750;SDS011;57335;52.288;6.056;2024-03-02T12:03:02;1.90;;;0.80;;
69750;SDS011;57335;52.288;6.056;2024-03-02T12:05:30;2.00;;;0.75;;
69750;SDS011;57335;52.288;6.056;2024-03-02T12:07:58;2.60;;;0.90;;
69750;SDS011;57335;52.288;6.056;2024-03-02T12:10:26;1.52;;;0.73;;
69750;SDS011;57335;52.288;6.056;2024-03-02T12:13:00;2.30;;;0.70;;
69750;SDS011;57335;52.288;6.056;2024-03-02T12:15:29;3.97;;;0.90;;
69750;SDS011;57335;52.288;6.056;2024-03-02T12:17:57;5.07;;;0.88;;
69750;SDS011;57335;52.288;6.056;2024-03-02T12:20:25;3.15;;;0.73;;
69750;SDS011;57335;52.288;6.056;2024-03-02T12:22:53;2.25;;;0.60;;
69750;SDS011;57335;52.288;6.056;2024-03-02T12:25:21;3.58;;;0.73;;
69750;SDS011;57335;52.288;6.056;2024-03-02T12:27:49;1.75;;;0.70;;
69750;SDS011;57335;52.288;6.056;2024-03-02T12:30:17;1.15;;;0.43;;
69750;SDS011;57335;52.288;6.056;2024-03-02T12:32:44;3.53;;;0.70;;
69750;SDS011;57335;52.288;6.056;2024-03-02T12:35:13;1.08;;;0.60;;
69750;SDS011;57335;52.288;6.056;2024-03-02T12:37:47;0.55;;;0.35;;
69750;SDS011;57335;52.288;6.056;2024-03-02T12:40:15;1.98;;;0.60;;
69750;SDS011;57335;52.288;6.056;2024-03-02T12:42:46;2.17;;;0.80;;
69750;SDS011;57335;52.288;6.056;2024-03-02T12:45:13;2.00;;;0.60;;
69750;SDS011;57335;52.288;6.056;2024-03-02T12:47:40;2.70;;;0.60;;
69750;SDS011;57335;52.288;6.056;2024-03-02T12:50:08;3.15;;;0.90;;
69750;SDS011;57335;52.288;6.056;2024-03-02T12:52:36;1.73;;;0.70;;
69750;SDS011;57335;52.288;6.056;2024-03-02T12:55:05;3.58;;;0.82;;
69750;SDS011;57335;52.288;6.056;2024-03-02T12:57:33;1.98;;;0.75;;
69750;SDS011;57335;52.288;6.056;2024-03-02T13:00:01;1.65;;;0.85;;
69750;SDS011;57335;52.288;6.056;2024-03-02T13:02:40;2.97;;;0.77;;
69750;SDS011;57335;52.288;6.056;2024-03-02T13:05:07;1.92;;;0.80;;
69750;SDS011;57335;52.288;6.056;2024-03-02T13:07:38;1.27;;;0.70;;
69750;SDS011;57335;52.288;6.056;2024-03-02T13:10:05;2.38;;;1.20;;
69750;SDS011;57335;52.288;6.056;2024-03-02T13:12:34;1.27;;;0.85;;
69750;SDS011;57335;52.288;6.056;2024-03-02T13:15:02;2.70;;;1.10;;
69750;SDS011;57335;52.288;6.056;2024-03-02T13:17:30;2.72;;;0.85;;
69750;SDS011;57335;52.288;6.056;2024-03-02T13:20:03;1.77;;;0.93;;
69750;SDS011;57335;52.288;6.056;2024-03-02T13:22:34;5.22;;;1.17;;
69750;SDS011;57335;52.288;6.056;2024-03-02T13:25:02;2.67;;;0.90;;
69750;SDS011;57335;52.288;6.056;2024-03-02T13:27:32;4.40;;;1.30;;
69750;SDS011;57335;52.288;6.056;2024-03-02T13:29:59;2.55;;;1.10;;
69750;SDS011;57335;52.288;6.056;2024-03-02T13:32:26;6.22;;;1.15;;
69750;SDS011;57335;52.288;6.056;2024-03-02T13:34:53;4.38;;;1.20;;
69750;SDS011;57335;52.288;6.056;2024-03-02T13:37:20;2.65;;;1.17;;
69750;SDS011;57335;52.288;6.056;2024-03-02T13:39:47;2.30;;;0.88;;
69750;SDS011;57335;52.288;6.056;2024-03-02T13:42:15;5.60;;;1.30;;
69750;SDS011;57335;52.288;6.056;2024-03-02T13:44:45;3.40;;;1.00;;
69750;SDS011;57335;52.288;6.056;2024-03-02T13:47:13;2.75;;;1.23;;
69750;SDS011;57335;52.288;6.056;2024-03-02T13:49:40;3.45;;;1.10;;
69750;SDS011;57335;52.288;6.056;2024-03-02T13:52:10;2.17;;;0.90;;
69750;SDS011;57335;52.288;6.056;2024-03-02T13:54:38;5.40;;;1.00;;
69750;SDS011;57335;52.288;6.056;2024-03-02T13:57:09;2.80;;;0.90;;
69750;SDS011;57335;52.288;6.056;2024-03-02T13:59:36;5.68;;;1.00;;
69750;SDS011;57335;52.288;6.056;2024-03-02T14:02:07;3.22;;;0.80;;
69750;SDS011;57335;52.288;6.056;2024-03-02T14:04:35;2.55;;;0.82;;
69750;SDS011;57335;52.288;6.056;2024-03-02T14:07:03;2.30;;;0.88;;
69750;SDS011;57335;52.288;6.056;2024-03-02T14:09:30;2.03;;;0.70;;
69750;SDS011;57335;52.288;6.056;2024-03-02T14:11:57;2.75;;;0.88;;
69750;SDS011;57335;52.288;6.056;2024-03-02T14:14:23;3.13;;;0.93;;
69750;SDS011;57335;52.288;6.056;2024-03-02T14:16:50;3.83;;;1.10;;
69750;SDS011;57335;52.288;6.056;2024-03-02T14:19:17;1.70;;;0.98;;
69750;SDS011;57335;52.288;6.056;2024-03-02T14:21:44;4.40;;;1.00;;
69750;SDS011;57335;52.288;6.056;2024-03-02T14:24:10;2.58;;;0.90;;
69750;SDS011;57335;52.288;6.056;2024-03-02T14:26:37;2.20;;;0.73;;
69750;SDS011;57335;52.288;6.056;2024-03-02T14:29:04;2.17;;;0.88;;
69750;SDS011;57335;52.288;6.056;2024-03-02T14:31:31;2.03;;;0.68;;
69750;SDS011;57335;52.288;6.056;2024-03-02T14:33:58;2.42;;;0.88;;
69750;SDS011;57335;52.288;6.056;2024-03-02T14:36:25;2.42;;;1.00;;
69750;SDS011;57335;52.288;6.056;2024-03-02T14:38:54;2.78;;;0.85;;
69750;SDS011;57335;52.288;6.056;2024-03-02T14:41:21;2.10;;;0.80;;
69750;SDS011;57335;52.288;6.056;2024-03-02T14:43:48;2.80;;;1.10;;
69750;SDS011;57335;52.288;6.056;2024-03-02T14:46:15;2.85;;;0.90;;
69750;SDS011;57335;52.288;6.056;2024-03-02T14:48:43;4.38;;;1.30;;
69750;SDS011;57335;52.288;6.056;2024-03-02T14:51:10;4.07;;;1.45;;
69750;SDS011;57335;52.288;6.056;2024-03-02T14:53:36;4.10;;;1.20;;
69750;SDS011;57335;52.288;6.056;2024-03-02T14:56:04;1.75;;;0.77;;
69750;SDS011;57335;52.288;6.056;2024-03-02T14:58:31;4.30;;;1.55;;
69750;SDS011;57335;52.288;6.056;2024-03-02T15:00:58;3.53;;;1.00;;
69750;SDS011;57335;52.288;6.056;2024-03-02T15:03:24;3.47;;;1.10;;